Terminal Aerodrome Forecast
Issued by NWS Charleston, WV

Current Version | Previous Version | Graphics & Text | Print | Product List | Glossary On
Versions: 1 2 3 4 5 6 7 8 9 10 11 12 13 14 15 16 17 18 19 20 21 22 23 24 25 26 27 28 29
613
FTUS41 KRLX 210523
TAFHTS
TAF
KHTS 210523Z 2106/2206 VRB02KT P6SM BKN250
     FM211700 18007KT P6SM BKN150
     FM220300 19004KT 5SM -SHRA OVC045=

USA.gov is the U.S. government's official web portal to all federal, state and local government web resources and services.